createdAt,value
2019-01-03T00:00:37.724Z,988.19
2019-01-03T00:01:37.763Z,988.22
2019-01-03T00:02:37.805Z,988.20
2019-01-03T00:03:37.863Z,988.22
2019-01-03T00:04:37.908Z,988.20
2019-01-03T00:05:37.914Z,988.20
2019-01-03T00:06:37.961Z,988.23
2019-01-03T00:07:37.994Z,988.22
2019-01-03T00:08:38.029Z,988.28
2019-01-03T00:09:38.105Z,988.27
2019-01-03T00:10:38.132Z,988.26
2019-01-03T00:11:38.150Z,988.25
2019-01-03T00:12:38.186Z,988.28
2019-01-03T00:13:38.222Z,988.29
2019-01-03T00:14:38.285Z,988.29
2019-01-03T00:15:38.320Z,988.29
2019-01-03T00:16:38.341Z,988.33
2019-01-03T00:17:38.373Z,988.33
2019-01-03T00:18:38.410Z,988.41
2019-01-03T00:19:38.472Z,988.40
2019-01-03T00:20:38.510Z,988.44
2019-01-03T00:21:38.525Z,988.44
2019-01-03T00:22:38.589Z,988.51
2019-01-03T00:23:38.612Z,988.48
2019-01-03T00:24:38.665Z,988.50
2019-01-03T00:25:38.700Z,988.49
2019-01-03T00:26:38.728Z,988.47
2019-01-03T00:27:38.765Z,988.49
2019-01-03T00:28:38.792Z,988.50
2019-01-03T00:29:38.830Z,988.54
2019-01-03T00:30:38.898Z,988.54
2019-01-03T00:31:38.904Z,988.54
2019-01-03T00:32:38.942Z,988.56
2019-01-03T00:33:38.992Z,988.54
2019-01-03T00:34:39.018Z,988.53
2019-01-03T00:35:39.080Z,988.55
2019-01-03T00:36:39.092Z,988.56
2019-01-03T00:37:39.133Z,988.52
2019-01-03T00:38:39.171Z,988.55
2019-01-03T00:39:39.220Z,988.58
2019-01-03T00:40:39.279Z,988.54
2019-01-03T00:41:39.286Z,988.59
2019-01-03T00:42:39.320Z,988.55
2019-01-03T00:43:39.360Z,988.60
2019-01-03T00:44:39.407Z,988.59
2019-01-03T00:45:39.474Z,988.61
2019-01-03T00:46:39.475Z,988.63
2019-01-03T00:47:39.520Z,988.64
2019-01-03T00:48:39.569Z,988.60
2019-01-03T00:49:39.588Z,988.60
2019-01-03T00:50:39.660Z,988.62
2019-01-03T00:51:39.716Z,988.64
2019-01-03T00:52:39.707Z,988.68
2019-01-03T00:53:39.760Z,988.66
2019-01-03T00:54:39.782Z,988.71
2019-01-03T00:55:39.818Z,988.75
2019-01-03T00:56:39.876Z,988.73
2019-01-03T00:57:39.915Z,988.72
2019-01-03T00:58:39.931Z,988.73
2019-01-03T00:59:39.982Z,988.74
2019-01-03T01:00:40.012Z,988.76
2019-01-03T01:01:40.056Z,988.74
2019-01-03T01:02:40.140Z,988.78
2019-01-03T01:03:40.132Z,988.79
2019-01-03T01:04:40.204Z,988.83
2019-01-03T01:05:40.260Z,988.83
2019-01-03T01:06:40.238Z,988.82
2019-01-03T01:07:40.299Z,988.85
2019-01-03T01:08:40.325Z,988.89
2019-01-03T01:09:40.361Z,988.81
2019-01-03T01:10:40.395Z,988.85
2019-01-03T01:11:40.436Z,988.87
2019-01-03T01:12:40.500Z,988.89
2019-01-03T01:13:40.506Z,988.90
2019-01-03T01:14:40.568Z,988.93
2019-01-03T01:15:40.583Z,988.92
2019-01-03T01:16:40.623Z,988.90
2019-01-03T01:17:40.681Z,988.97
2019-01-03T01:18:40.702Z,988.93
2019-01-03T01:19:40.737Z,988.91
2019-01-03T01:20:40.778Z,988.88
2019-01-03T01:21:40.841Z,988.90
2019-01-03T01:22:40.873Z,988.88
2019-01-03T01:23:40.907Z,988.93
2019-01-03T01:24:40.928Z,988.91
2019-01-03T01:25:40.976Z,988.96
2019-01-03T01:26:41.004Z,988.93
2019-01-03T01:27:41.063Z,988.95
2019-01-03T01:28:41.240Z,988.94
2019-01-03T01:29:41.134Z,988.94
2019-01-03T01:30:41.157Z,988.97
2019-01-03T01:31:41.194Z,989.01
2019-01-03T01:32:41.231Z,989.02
2019-01-03T01:33:41.307Z,989.04
2019-01-03T01:34:41.316Z,989.05
2019-01-03T01:35:41.348Z,989.11
2019-01-03T01:36:41.390Z,989.08
2019-01-03T01:37:41.429Z,989.10
2019-01-03T01:38:41.479Z,989.10
2019-01-03T01:39:41.500Z,989.10
2019-01-03T01:40:41.535Z,989.09
2019-01-03T01:41:41.586Z,989.09
2019-01-03T01:42:41.616Z,989.11
2019-01-03T01:43:41.666Z,989.06
2019-01-03T01:44:41.709Z,989.09
2019-01-03T01:45:41.725Z,989.11
2019-01-03T01:46:41.839Z,989.11
2019-01-03T01:47:41.802Z,989.14
2019-01-03T01:48:41.836Z,989.11
2019-01-03T01:49:41.923Z,989.08
2019-01-03T01:50:41.925Z,989.09
2019-01-03T01:51:41.955Z,989.10
2019-01-03T01:52:41.990Z,989.11
2019-01-03T01:53:42.093Z,989.13
2019-01-03T01:54:42.097Z,989.09
2019-01-03T01:55:42.114Z,989.12
2019-01-03T01:56:42.149Z,989.15
2019-01-03T01:57:42.194Z,989.13
2019-01-03T01:58:42.219Z,989.12
2019-01-03T01:59:42.276Z,989.14
2019-01-03T02:00:42.311Z,989.17
2019-01-03T02:01:42.328Z,989.12
2019-01-03T02:02:42.377Z,989.08
2019-01-03T02:03:42.406Z,989.11
2019-01-03T02:04:42.482Z,989.12
2019-01-03T02:05:42.482Z,989.13
2019-01-03T02:06:42.525Z,989.11
2019-01-03T02:07:42.563Z,989.07
2019-01-03T02:08:42.604Z,989.10
2019-01-03T02:09:42.652Z,989.06
2019-01-03T02:10:42.687Z,989.12
2019-01-03T02:11:42.708Z,989.07
2019-01-03T02:12:42.752Z,989.09
2019-01-03T02:13:42.780Z,989.09
2019-01-03T02:14:42.824Z,989.08
2019-01-03T02:15:42.881Z,989.12
2019-01-03T02:16:42.896Z,989.10
2019-01-03T02:17:42.937Z,989.05
2019-01-03T02:18:42.977Z,989.04
2019-01-03T02:19:43.005Z,989.05
2019-01-03T02:20:43.076Z,989.00
2019-01-03T02:21:43.083Z,989.01
2019-01-03T02:22:43.118Z,989.04
2019-01-03T02:23:43.161Z,989.00
2019-01-03T02:24:43.198Z,989.00
2019-01-03T02:25:43.250Z,988.97
2019-01-03T02:26:43.295Z,988.94
2019-01-03T02:27:43.308Z,988.93
2019-01-03T02:28:43.342Z,988.94
2019-01-03T02:29:43.384Z,988.93
2019-01-03T02:30:43.418Z,988.89
2019-01-03T02:31:43.484Z,988.91
2019-01-03T02:32:43.493Z,988.89
2019-01-03T02:33:43.530Z,988.91
2019-01-03T02:34:43.577Z,988.91
2019-01-03T02:35:43.604Z,988.84
2019-01-03T02:36:43.796Z,988.89
2019-01-03T02:37:43.682Z,988.93
2019-01-03T02:38:43.727Z,988.90
2019-01-03T02:39:43.753Z,988.95
2019-01-03T02:40:43.790Z,988.91
2019-01-03T02:41:43.851Z,988.89
2019-01-03T02:42:43.863Z,988.89
2019-01-03T02:43:43.909Z,988.87
2019-01-03T02:44:43.942Z,988.89
2019-01-03T02:45:43.990Z,988.89
2019-01-03T02:46:44.033Z,988.93
2019-01-03T02:47:44.061Z,988.93
2019-01-03T02:48:44.089Z,988.92
2019-01-03T02:49:44.127Z,988.91
2019-01-03T02:50:44.171Z,988.93
2019-01-03T02:51:44.219Z,988.90
2019-01-03T02:52:44.262Z,988.93
2019-01-03T02:53:44.273Z,988.91
2019-01-03T02:54:44.371Z,988.88
2019-01-03T02:55:44.349Z,988.89
2019-01-03T02:56:44.393Z,988.88
2019-01-03T02:57:44.455Z,988.87
2019-01-03T02:58:44.465Z,988.88
2019-01-03T02:59:44.501Z,988.92
2019-01-03T03:00:44.535Z,988.91
2019-01-03T03:01:44.574Z,988.88
2019-01-03T03:02:44.636Z,988.93
2019-01-03T03:03:44.647Z,988.88
2019-01-03T03:04:44.684Z,988.92
2019-01-03T03:05:44.721Z,988.92
2019-01-03T03:06:44.758Z,988.90
2019-01-03T03:07:44.903Z,988.93
2019-01-03T03:08:44.839Z,988.96
2019-01-03T03:09:44.881Z,988.92
2019-01-03T03:10:44.910Z,988.92
2019-01-03T03:11:44.946Z,988.91
2019-01-03T03:12:45.021Z,988.89
2019-01-03T03:13:45.022Z,988.91
2019-01-03T03:14:45.066Z,988.91
2019-01-03T03:15:45.104Z,988.90
2019-01-03T03:16:45.132Z,988.88
2019-01-03T03:17:45.191Z,988.91
2019-01-03T03:18:45.210Z,988.92
2019-01-03T03:19:45.334Z,988.90
2019-01-03T03:20:45.289Z,988.95
2019-01-03T03:21:45.320Z,988.92
2019-01-03T03:22:45.388Z,988.92
2019-01-03T03:23:45.406Z,988.87
2019-01-03T03:24:45.436Z,988.89
2019-01-03T03:25:45.472Z,988.91
2019-01-03T03:26:45.512Z,988.90
2019-01-03T03:27:45.574Z,988.87
2019-01-03T03:28:45.615Z,988.91
2019-01-03T03:29:45.620Z,988.89
2019-01-03T03:30:45.660Z,988.89
2019-01-03T03:31:45.706Z,988.93
2019-01-03T03:32:45.734Z,988.92
2019-01-03T03:33:45.791Z,988.97
2019-01-03T03:34:45.809Z,988.93
2019-01-03T03:35:45.847Z,988.95
2019-01-03T03:36:45.887Z,988.96
2019-01-03T03:37:45.940Z,988.94
2019-01-03T03:38:45.981Z,988.93
2019-01-03T03:39:46.005Z,988.97
2019-01-03T03:40:46.039Z,988.94
2019-01-03T03:41:46.069Z,988.96
2019-01-03T03:42:46.116Z,988.99
2019-01-03T03:43:46.174Z,988.95
2019-01-03T03:44:46.292Z,988.95
2019-01-03T03:45:46.223Z,988.94
2019-01-03T03:46:46.264Z,988.93
2019-01-03T03:47:46.294Z,988.91
2019-01-03T03:48:46.371Z,988.93
2019-01-03T03:49:46.369Z,988.92
2019-01-03T03:50:46.414Z,988.89
2019-01-03T03:51:46.442Z,988.87
2019-01-03T03:52:46.482Z,988.88
2019-01-03T03:53:46.547Z,988.88
2019-01-03T03:54:46.564Z,988.82
2019-01-03T03:55:46.602Z,988.85
2019-01-03T03:56:46.629Z,988.85
2019-01-03T03:57:46.668Z,988.83
2019-01-03T03:58:47.063Z,988.84
2019-01-03T03:59:46.765Z,988.84
2019-01-03T04:00:46.779Z,988.82
2019-01-03T04:01:46.818Z,988.78
2019-01-03T04:02:46.891Z,988.82
2019-01-03T04:03:46.889Z,988.85
2019-01-03T04:04:46.952Z,988.82
2019-01-03T04:05:46.964Z,988.82
2019-01-03T04:06:47.008Z,988.88
2019-01-03T04:07:47.035Z,988.85
2019-01-03T04:08:47.082Z,988.83
2019-01-03T04:09:47.184Z,988.85
2019-01-03T04:10:47.149Z,988.83
2019-01-03T04:11:47.187Z,988.84
2019-01-03T04:12:47.221Z,988.85
2019-01-03T04:13:47.277Z,988.83
2019-01-03T04:14:47.324Z,988.83
2019-01-03T04:15:47.357Z,988.78
2019-01-03T04:16:47.374Z,988.82
2019-01-03T04:17:47.405Z,988.83
2019-01-03T04:18:47.448Z,988.86
2019-01-03T04:19:47.483Z,988.86
2019-01-03T04:20:47.564Z,988.84
2019-01-03T04:21:47.560Z,988.87
2019-01-03T04:22:47.600Z,988.85
2019-01-03T04:23:47.629Z,988.84
2019-01-03T04:24:47.666Z,988.88
2019-01-03T04:25:47.740Z,988.86
2019-01-03T04:26:47.739Z,988.87
2019-01-03T04:27:47.833Z,988.86
2019-01-03T04:28:47.810Z,988.87
2019-01-03T04:29:47.848Z,988.84
2019-01-03T04:30:47.906Z,988.84
2019-01-03T04:31:47.923Z,988.87
2019-01-03T04:32:47.961Z,988.87
2019-01-03T04:33:47.997Z,988.86
2019-01-03T04:34:48.039Z,988.89
2019-01-03T04:35:48.091Z,988.86
2019-01-03T04:36:48.105Z,988.90
2019-01-03T04:37:48.167Z,988.89
2019-01-03T04:38:48.180Z,988.84
2019-01-03T04:39:48.233Z,988.82
2019-01-03T04:40:48.261Z,988.82
2019-01-03T04:41:48.309Z,988.83
2019-01-03T04:42:48.323Z,988.83
2019-01-03T04:43:48.365Z,988.82
2019-01-03T04:44:48.414Z,988.76
2019-01-03T04:45:49.015Z,988.79
2019-01-03T04:46:48.496Z,988.78
2019-01-03T04:47:48.514Z,988.78
2019-01-03T04:48:48.549Z,988.75
2019-01-03T04:49:48.585Z,988.75
2019-01-03T04:50:48.615Z,988.74
2019-01-03T04:51:48.679Z,988.76
2019-01-03T04:52:48.686Z,988.77
2019-01-03T04:53:48.727Z,988.78
2019-01-03T04:54:48.761Z,988.81
2019-01-03T04:55:48.804Z,988.78
2019-01-03T04:56:48.874Z,988.84
2019-01-03T04:57:48.882Z,988.83
2019-01-03T04:58:48.910Z,988.83
2019-01-03T04:59:48.953Z,988.82
2019-01-03T05:00:48.979Z,988.88
2019-01-03T05:01:49.038Z,988.82
2019-01-03T05:02:49.069Z,988.85
2019-01-03T05:03:49.112Z,988.85
2019-01-03T05:04:49.123Z,988.83
2019-01-03T05:05:49.159Z,988.86
2019-01-03T05:06:49.195Z,988.90
2019-01-03T05:07:49.249Z,988.83
2019-01-03T05:08:49.273Z,988.86
2019-01-03T05:09:49.313Z,988.87
2019-01-03T05:10:49.462Z,988.88
2019-01-03T05:11:49.386Z,988.89
2019-01-03T05:12:49.456Z,988.84
2019-01-03T05:13:49.451Z,988.86
2019-01-03T05:14:49.484Z,988.86
2019-01-03T05:15:49.522Z,988.88
2019-01-03T05:16:49.571Z,988.89
2019-01-03T05:17:49.616Z,988.89
2019-01-03T05:18:49.655Z,988.88
2019-01-03T05:19:49.671Z,988.87
2019-01-03T05:20:49.698Z,988.87
2019-01-03T05:21:49.747Z,988.81
2019-01-03T05:22:49.775Z,988.78
2019-01-03T05:23:56.595Z,988.80
2019-01-03T05:24:49.844Z,988.74
2019-01-03T05:25:49.891Z,988.74
2019-01-03T05:26:49.914Z,988.72
2019-01-03T05:27:49.951Z,988.70
2019-01-03T05:28:50.116Z,988.69
2019-01-03T05:29:50.029Z,988.75
2019-01-03T05:30:50.060Z,988.72
2019-01-03T05:31:50.099Z,988.76
2019-01-03T05:32:50.132Z,988.76
2019-01-03T05:33:50.186Z,988.77
2019-01-03T05:34:50.229Z,988.77
2019-01-03T05:35:50.239Z,988.78
2019-01-03T05:36:50.275Z,988.76
2019-01-03T05:37:50.316Z,988.74
2019-01-03T05:38:50.346Z,988.76
2019-01-03T05:39:50.400Z,988.75
2019-01-03T05:40:50.418Z,988.77
2019-01-03T05:41:50.453Z,988.74
2019-01-03T05:42:50.488Z,988.79
2019-01-03T05:43:50.521Z,988.81
2019-01-03T05:44:50.581Z,988.87
2019-01-03T05:45:50.596Z,988.85
2019-01-03T05:46:50.695Z,988.88
2019-01-03T05:47:50.675Z,988.86
2019-01-03T05:48:50.712Z,988.85
2019-01-03T05:49:50.771Z,988.91
2019-01-03T05:50:50.780Z,988.93
2019-01-03T05:51:50.814Z,988.93
2019-01-03T05:52:50.853Z,988.95
2019-01-03T05:53:50.892Z,988.99
2019-01-03T05:54:50.948Z,989.01
2019-01-03T05:55:50.963Z,988.97
2019-01-03T05:56:50.994Z,988.98
2019-01-03T05:57:51.035Z,988.97
2019-01-03T05:58:51.060Z,988.99
2019-01-03T05:59:51.115Z,988.98
2019-01-03T06:00:51.162Z,988.99
2019-01-03T06:01:51.180Z,988.99
2019-01-03T06:02:51.213Z,988.99
2019-01-03T06:03:51.248Z,989.05
2019-01-03T06:04:51.288Z,989.08
2019-01-03T06:05:51.335Z,989.07
2019-01-03T06:06:51.367Z,989.09
2019-01-03T06:07:51.385Z,989.12
2019-01-03T06:08:51.429Z,989.14
2019-01-03T06:09:51.460Z,989.07
2019-01-03T06:10:51.517Z,989.04
2019-01-03T06:11:51.653Z,989.07
2019-01-03T06:12:51.574Z,989.08
2019-01-03T06:13:51.614Z,989.10
2019-01-03T06:14:51.643Z,989.07
2019-01-03T06:15:51.710Z,989.11
2019-01-03T06:16:51.715Z,989.14
2019-01-03T06:17:51.752Z,989.11
2019-01-03T06:18:51.787Z,989.09
2019-01-03T06:19:51.826Z,989.14
2019-01-03T06:20:51.882Z,989.12
2019-01-03T06:21:51.930Z,989.11
2019-01-03T06:22:51.957Z,989.14
2019-01-03T06:23:51.976Z,989.14
2019-01-03T06:24:52.014Z,989.14
2019-01-03T06:25:52.044Z,989.18
2019-01-03T06:26:52.104Z,989.15
2019-01-03T06:27:52.122Z,989.17
2019-01-03T06:28:52.155Z,989.17
2019-01-03T06:29:52.226Z,989.19
2019-01-03T06:30:52.230Z,989.19
2019-01-03T06:31:52.288Z,989.17
2019-01-03T06:32:52.304Z,989.19
2019-01-03T06:33:52.348Z,989.22
2019-01-03T06:34:52.380Z,989.29
2019-01-03T06:35:53.726Z,989.29
2019-01-03T06:36:52.611Z,989.32
2019-01-03T06:37:52.499Z,989.33
2019-01-03T06:38:52.527Z,989.29
2019-01-03T06:39:52.566Z,989.33
2019-01-03T06:40:52.606Z,989.34
2019-01-03T06:41:52.656Z,989.34
2019-01-03T06:42:52.673Z,989.32
2019-01-03T06:43:52.711Z,989.33
2019-01-03T06:44:52.754Z,989.36
2019-01-03T06:45:52.790Z,989.39
2019-01-03T06:46:52.850Z,989.42
2019-01-03T06:47:52.920Z,989.39
2019-01-03T06:48:52.896Z,989.42
2019-01-03T06:49:52.931Z,989.44
2019-01-03T06:50:52.970Z,989.43
2019-01-03T06:51:53.006Z,989.48
2019-01-03T06:52:53.062Z,989.45
2019-01-03T06:53:53.087Z,989.44
2019-01-03T06:54:53.230Z,989.46
2019-01-03T06:55:53.158Z,989.48
2019-01-03T06:56:53.190Z,989.51
2019-01-03T06:57:53.252Z,989.48
2019-01-03T06:58:53.289Z,989.50
2019-01-03T06:59:53.301Z,989.49
2019-01-03T07:00:53.342Z,989.50
2019-01-03T07:01:53.725Z,989.49
2019-01-03T07:02:53.439Z,989.54
2019-01-03T07:03:53.470Z,989.55
2019-01-03T07:04:53.483Z,989.56
2019-01-03T07:05:53.545Z,989.55
2019-01-03T07:06:53.559Z,989.54
2019-01-03T07:07:53.635Z,989.54
2019-01-03T07:08:53.634Z,989.54
2019-01-03T07:09:53.670Z,989.53
2019-01-03T07:10:53.707Z,989.59
2019-01-03T07:11:53.750Z,989.59
2019-01-03T07:12:53.895Z,989.61
2019-01-03T07:13:53.818Z,989.57
2019-01-03T07:14:53.874Z,989.59
2019-01-03T07:15:53.893Z,989.63
2019-01-03T07:16:53.930Z,989.62
2019-01-03T07:17:53.980Z,989.67
2019-01-03T07:18:54.031Z,989.72
2019-01-03T07:19:54.039Z,989.69
2019-01-03T07:20:54.080Z,989.70
2019-01-03T07:21:54.124Z,989.70
2019-01-03T07:22:54.150Z,989.78
2019-01-03T07:23:54.216Z,989.78
2019-01-03T07:24:54.222Z,989.78
2019-01-03T07:25:54.267Z,989.81
2019-01-03T07:26:54.308Z,989.81
2019-01-03T07:27:54.332Z,989.84
2019-01-03T07:28:54.434Z,989.82
2019-01-03T07:29:54.408Z,989.83
2019-01-03T07:30:54.502Z,989.87
2019-01-03T07:31:54.480Z,989.91
2019-01-03T07:32:54.525Z,989.91
2019-01-03T07:33:54.597Z,989.93
2019-01-03T07:34:54.611Z,989.96
2019-01-03T07:35:54.625Z,989.94
2019-01-03T07:36:54.661Z,989.91
2019-01-03T07:37:54.824Z,989.93
2019-01-03T07:38:54.743Z,989.94
2019-01-03T07:39:54.794Z,989.90
2019-01-03T07:40:54.818Z,989.91
2019-01-03T07:41:54.848Z,989.88
2019-01-03T07:42:54.881Z,989.89
2019-01-03T07:43:54.919Z,989.92
2019-01-03T07:44:54.976Z,989.93
2019-01-03T07:45:54.996Z,989.93
2019-01-03T07:46:55.028Z,989.91
2019-01-03T07:47:55.064Z,989.94
2019-01-03T07:48:55.139Z,989.92
2019-01-03T07:49:55.159Z,989.93
2019-01-03T07:50:55.194Z,989.90
2019-01-03T07:51:55.220Z,989.90
2019-01-03T07:52:55.247Z,989.95
2019-01-03T07:53:55.284Z,989.94
2019-01-03T07:54:55.329Z,989.95
2019-01-03T07:55:55.473Z,989.99
2019-01-03T07:56:55.394Z,990.00
2019-01-03T07:57:55.434Z,990.00
2019-01-03T07:58:55.488Z,990.01
2019-01-03T07:59:55.504Z,990.01
2019-01-03T08:00:55.556Z,990.01
2019-01-03T08:01:55.577Z,990.01
2019-01-03T08:02:55.615Z,990.06
2019-01-03T08:03:55.652Z,989.99
2019-01-03T08:04:55.688Z,990.00
2019-01-03T08:05:55.745Z,989.97
2019-01-03T08:06:55.762Z,989.96
2019-01-03T08:07:55.800Z,990.00
2019-01-03T08:08:55.834Z,990.01
2019-01-03T08:09:55.875Z,990.06
2019-01-03T08:10:55.953Z,990.07
2019-01-03T08:11:55.944Z,990.08
2019-01-03T08:12:55.983Z,990.07
2019-01-03T08:13:56.058Z,990.11
2019-01-03T08:14:56.057Z,990.09
2019-01-03T08:15:56.120Z,990.07
2019-01-03T08:16:56.128Z,990.11
2019-01-03T08:17:56.165Z,990.07
2019-01-03T08:18:56.203Z,990.10
2019-01-03T08:19:56.241Z,990.07
2019-01-03T08:20:56.426Z,990.05
2019-01-03T08:21:56.356Z,990.03
2019-01-03T08:22:56.349Z,990.06
2019-01-03T08:23:56.390Z,990.02
2019-01-03T08:24:56.423Z,990.02
2019-01-03T08:25:56.459Z,989.99
2019-01-03T08:26:56.521Z,989.97
2019-01-03T08:27:56.535Z,989.95
2019-01-03T08:28:56.570Z,989.92
2019-01-03T08:29:56.617Z,989.91
2019-01-03T08:30:56.676Z,989.91
2019-01-03T08:31:56.725Z,989.90
2019-01-03T08:32:56.718Z,989.92
2019-01-03T08:33:56.761Z,989.95
2019-01-03T08:34:56.802Z,989.94
2019-01-03T08:35:56.839Z,989.96
2019-01-03T08:36:56.888Z,989.99
2019-01-03T08:37:56.908Z,989.99
2019-01-03T08:38:57.013Z,990.01
2019-01-03T08:39:58.094Z,990.01
2019-01-03T08:40:57.030Z,989.97
2019-01-03T08:41:57.084Z,990.01
2019-01-03T08:42:57.093Z,990.01
2019-01-03T08:43:57.133Z,990.03
2019-01-03T08:44:57.172Z,990.03
2019-01-03T08:45:57.217Z,990.04
2019-01-03T08:46:57.269Z,989.96
2019-01-03T08:47:57.303Z,990.02
2019-01-03T08:49:00.457Z,989.99
2019-01-03T08:49:57.370Z,990.08
2019-01-03T08:50:57.400Z,990.08
2019-01-03T08:51:57.447Z,990.07
2019-01-03T08:52:57.510Z,990.09
2019-01-03T08:53:57.512Z,990.08
2019-01-03T08:54:57.568Z,990.04
2019-01-03T08:55:57.595Z,990.03
2019-01-03T08:56:57.663Z,990.01
2019-01-03T08:57:57.684Z,990.07
2019-01-03T08:58:57.703Z,990.08
2019-01-03T08:59:57.741Z,990.07
2019-01-03T09:00:57.797Z,990.12
2019-01-03T09:01:57.814Z,990.13
2019-01-03T09:02:57.892Z,990.11
2019-01-03T09:03:57.900Z,990.10
2019-01-03T09:04:57.940Z,990.12
2019-01-03T09:05:57.971Z,990.10
2019-01-03T09:06:58.007Z,990.09
2019-01-03T09:07:58.068Z,990.05
2019-01-03T09:08:58.099Z,990.11
2019-01-03T09:09:58.131Z,990.09
2019-01-03T09:10:58.163Z,990.08
2019-01-03T09:11:58.202Z,990.09
2019-01-03T09:12:58.245Z,990.12
2019-01-03T09:13:58.293Z,990.13
2019-01-03T09:14:58.338Z,990.17
2019-01-03T09:15:58.372Z,990.14
2019-01-03T09:16:58.395Z,990.13
2019-01-03T09:17:58.445Z,990.18
2019-01-03T09:18:58.491Z,990.22
2019-01-03T09:19:58.509Z,990.19
2019-01-03T09:20:58.560Z,990.18
2019-01-03T09:21:58.630Z,990.14
2019-01-03T09:22:58.636Z,990.19
2019-01-03T09:23:58.694Z,990.18
2019-01-03T09:24:58.706Z,990.19
2019-01-03T09:25:58.754Z,990.17
2019-01-03T09:26:58.787Z,990.15
2019-01-03T09:27:58.823Z,990.07
2019-01-03T09:28:58.970Z,990.08
2019-01-03T09:29:58.912Z,990.06
2019-01-03T09:30:58.939Z,990.10
2019-01-03T09:31:58.977Z,990.11
2019-01-03T09:32:59.024Z,990.12
2019-01-03T09:33:59.090Z,990.14
2019-01-03T09:34:59.113Z,990.12
2019-01-03T09:35:59.142Z,990.13
2019-01-03T09:36:59.170Z,990.13
2019-01-03T09:37:59.209Z,990.14
2019-01-03T09:38:59.249Z,990.06
2019-01-03T09:39:59.310Z,990.07
2019-01-03T09:40:59.445Z,990.08
2019-01-03T09:41:59.367Z,990.11
2019-01-03T09:43:00.177Z,990.09
2019-01-03T09:43:59.441Z,990.10
2019-01-03T09:44:59.505Z,990.06
2019-01-03T09:45:59.543Z,990.05
2019-01-03T09:46:59.615Z,990.07
2019-01-03T09:47:59.602Z,990.08
2019-01-03T09:48:59.645Z,990.08
2019-01-03T09:49:59.712Z,990.07
2019-01-03T09:50:59.725Z,990.05
2019-01-03T09:51:59.756Z,990.08
2019-01-03T09:52:59.795Z,990.06
2019-01-03T09:53:59.906Z,990.07
2019-01-03T09:54:59.895Z,990.08
2019-01-03T09:55:59.929Z,990.12
2019-01-03T09:56:59.949Z,990.08
2019-01-03T09:58:00.006Z,990.02
2019-01-03T09:59:00.053Z,990.04
2019-01-03T10:00:00.241Z,990.03
2019-01-03T10:01:00.106Z,990.01
2019-01-03T10:02:00.155Z,990.04
2019-01-03T10:03:00.199Z,990.03
2019-01-03T10:04:00.232Z,990.03
2019-01-03T10:05:00.291Z,990.03
2019-01-03T10:06:00.305Z,990.02
2019-01-03T10:07:00.340Z,990.03
2019-01-03T10:08:00.378Z,990.06
2019-01-03T10:09:00.419Z,990.02
2019-01-03T10:10:00.493Z,989.95
2019-01-03T10:11:00.499Z,989.96
2019-01-03T10:12:00.546Z,989.91
2019-01-03T10:13:00.573Z,989.90
2019-01-03T10:14:00.627Z,989.89
2019-01-03T10:15:00.673Z,989.88
2019-01-03T10:16:00.732Z,989.91
2019-01-03T10:17:00.746Z,989.88
2019-01-03T10:18:00.771Z,989.88
2019-01-03T10:19:01.486Z,989.89
2019-01-03T10:20:00.848Z,989.85
2019-01-03T10:21:00.921Z,989.86
2019-01-03T10:22:00.927Z,989.82
2019-01-03T10:23:00.968Z,989.85
2019-01-03T10:24:01.012Z,989.80
2019-01-03T10:25:01.045Z,989.85
2019-01-03T10:26:01.163Z,989.80
2019-01-03T10:27:01.122Z,989.78
2019-01-03T10:28:01.160Z,989.75
2019-01-03T10:29:01.201Z,989.72
2019-01-03T10:30:01.245Z,989.70
2019-01-03T10:31:01.307Z,989.72
2019-01-03T10:32:01.323Z,989.73
2019-01-03T10:33:01.365Z,989.68
2019-01-03T10:34:01.398Z,989.67
2019-01-03T10:35:01.466Z,989.65
2019-01-03T10:36:01.495Z,989.65
2019-01-03T10:37:01.524Z,989.65
2019-01-03T10:38:01.554Z,989.68
2019-01-03T10:39:01.591Z,989.63
2019-01-03T10:40:01.631Z,989.65
2019-01-03T10:41:01.700Z,989.65
2019-01-03T10:42:01.722Z,989.59
2019-01-03T10:43:01.768Z,989.60
2019-01-03T10:44:01.794Z,989.58
2019-01-03T10:45:01.824Z,989.59
2019-01-03T10:46:01.872Z,989.56
2019-01-03T10:47:01.907Z,989.56
2019-01-03T10:48:01.975Z,989.57
2019-01-03T10:49:01.983Z,989.53
2019-01-03T10:50:02.028Z,989.50
2019-01-03T10:51:02.066Z,989.49
2019-01-03T10:52:02.101Z,989.50
2019-01-03T10:53:02.161Z,989.46
2019-01-03T10:54:02.180Z,989.45
2019-01-03T10:55:02.222Z,989.41
2019-01-03T10:56:02.269Z,989.36
2019-01-03T10:57:02.306Z,989.35
2019-01-03T10:58:02.364Z,989.32
2019-01-03T10:59:02.378Z,989.31
2019-01-03T11:00:02.414Z,989.27
2019-01-03T11:01:02.461Z,989.27
2019-01-03T11:02:02.504Z,989.22
2019-01-03T11:03:02.569Z,989.22
2019-01-03T11:04:02.578Z,989.22
2019-01-03T11:05:02.613Z,989.21
2019-01-03T11:06:02.659Z,989.22
2019-01-03T11:07:02.689Z,989.17
2019-01-03T11:08:02.767Z,989.17
2019-01-03T11:09:02.777Z,989.16
2019-01-03T11:10:02.816Z,989.15
2019-01-03T11:11:02.861Z,989.16
2019-01-03T11:12:02.894Z,989.13
2019-01-03T11:13:02.951Z,989.09
2019-01-03T11:14:02.973Z,989.07
2019-01-03T11:15:03.008Z,989.08
2019-01-03T11:16:03.049Z,989.06
2019-01-03T11:17:03.096Z,989.08
2019-01-03T11:18:03.152Z,989.10
2019-01-03T11:19:03.171Z,989.07
2019-01-03T11:20:03.209Z,989.06
2019-01-03T11:21:03.268Z,989.09
2019-01-03T11:22:03.289Z,989.11
2019-01-03T11:23:03.408Z,989.08
2019-01-03T11:24:03.370Z,989.12
2019-01-03T11:25:03.485Z,989.15
2019-01-03T11:26:03.460Z,989.13
2019-01-03T11:27:03.496Z,989.13
2019-01-03T11:28:03.554Z,989.13
2019-01-03T11:29:03.604Z,989.11
2019-01-03T11:30:03.622Z,989.15
2019-01-03T11:31:03.665Z,989.11
2019-01-03T11:32:03.788Z,989.14
2019-01-03T11:33:03.734Z,989.12
2019-01-03T11:34:03.808Z,989.11
2019-01-03T11:35:03.810Z,989.09
2019-01-03T11:36:03.853Z,989.09
2019-01-03T11:37:03.895Z,989.13
2019-01-03T11:38:03.932Z,989.18
2019-01-03T11:39:03.995Z,989.19
2019-01-03T11:40:04.036Z,989.22
2019-01-03T11:41:04.049Z,989.17
2019-01-03T11:42:04.101Z,989.16
2019-01-03T11:43:04.143Z,989.17
2019-01-03T11:44:04.173Z,989.15
2019-01-03T11:45:04.244Z,989.11
2019-01-03T11:46:04.275Z,989.13
2019-01-03T11:47:04.304Z,989.15
2019-01-03T11:48:04.331Z,989.12
2019-01-03T11:49:04.381Z,989.08
2019-01-03T11:50:04.462Z,989.10
2019-01-03T11:51:04.472Z,989.05
2019-01-03T11:52:04.508Z,989.05
2019-01-03T11:53:04.537Z,989.07
2019-01-03T11:54:04.584Z,989.07
2019-01-03T11:55:04.673Z,989.08
2019-01-03T11:56:04.664Z,989.03
2019-01-03T11:57:04.736Z,989.02
2019-01-03T11:58:04.745Z,989.08
2019-01-03T11:59:04.782Z,989.02
2019-01-03T12:00:04.877Z,989.01
2019-01-03T12:01:04.857Z,988.98
2019-01-03T12:02:04.907Z,988.98
2019-01-03T12:03:04.952Z,988.97
2019-01-03T12:04:05.073Z,988.97
2019-01-03T12:05:05.055Z,989.00
2019-01-03T12:06:05.061Z,988.98
2019-01-03T12:07:05.099Z,988.96
2019-01-03T12:08:05.141Z,989.00
2019-01-03T12:09:05.186Z,988.98
2019-01-03T12:10:05.255Z,989.00
2019-01-03T12:11:05.289Z,989.04
2019-01-03T12:12:05.299Z,988.99
2019-01-03T12:13:05.338Z,988.97
2019-01-03T12:14:05.379Z,988.97
2019-01-03T12:15:05.417Z,988.94
2019-01-03T12:16:05.489Z,988.91
2019-01-03T12:17:05.501Z,988.88
2019-01-03T12:18:05.538Z,988.89
2019-01-03T12:19:05.582Z,988.90
2019-01-03T12:20:05.618Z,988.90
2019-01-03T12:21:05.680Z,988.90
2019-01-03T12:22:05.767Z,988.86
2019-01-03T12:23:05.739Z,988.87
2019-01-03T12:24:05.783Z,988.87
2019-01-03T12:25:05.828Z,988.91
2019-01-03T12:26:05.880Z,988.88
2019-01-03T12:27:05.901Z,988.85
2019-01-03T12:28:05.946Z,988.85
2019-01-03T12:29:05.996Z,988.83